KTSP/TSP METAR and TAF weather

Enter ICAO airport designator
Station Type Date Time Source
KTSP METAR 2021/01/06 22:55 UTC NOAA

KTSP 062255Z AUTO 31016G19KT 10SM CLR 13/M05 A3019 RMK AO2


Station Type Date Time Source
KTSP Decoded METAR 2021/01/06 22:55 UTC NOAA

Station name not available
Jan 06, 2021 - 05:55 PM EST / 2021.01.06 2255 UTC
Wind: from the NW (310 degrees) at 18 MPH (16 KT) gusting to 22 MPH (19 KT):0
Visibility: 10 mile(s):0
Sky conditions: clear
Temperature: 55 F (13 C)
Dew Point: 23 F (-5 C)
Relative Humidity: 28%
Pressure (altimeter): 30.19 in. Hg (1022 hPa)
ob: KTSP 062255Z AUTO 31016G19KT 10SM CLR 13/M05 A3019 RMK AO2
cycle: 23

Station Type Date Time Source
KTSP TAF UTC NOAA

Error!

Example: see airport list